createdAt,value
2022-12-08T00:00:55.051Z,46.86
2022-12-08T00:01:55.098Z,48.45
2022-12-08T00:02:55.152Z,48.35
2022-12-08T00:03:55.051Z,47.39
2022-12-08T00:04:55.045Z,47.66
2022-12-08T00:05:55.010Z,50.15
2022-12-08T00:06:55.020Z,46.92
2022-12-08T00:07:55.057Z,47.33
2022-12-08T00:08:54.991Z,46.98
2022-12-08T00:09:55.002Z,46.84
2022-12-08T00:10:55.003Z,49.12
2022-12-08T00:11:54.982Z,46.72
2022-12-08T00:12:54.958Z,47.73
2022-12-08T00:13:54.969Z,47.16
2022-12-08T00:14:54.951Z,46.43
2022-12-08T00:15:54.975Z,46.46
2022-12-08T00:16:55.048Z,46.31
2022-12-08T00:17:54.937Z,46.55
2022-12-08T00:18:54.944Z,48.13
2022-12-08T00:19:54.949Z,46.82
2022-12-08T00:20:54.947Z,47.10
2022-12-08T00:21:54.898Z,46.55
2022-12-08T00:22:54.921Z,49.44
2022-12-08T00:23:54.917Z,52.31
2022-12-08T00:24:54.901Z,48.25
2022-12-08T00:25:54.914Z,47.90
2022-12-08T00:26:54.863Z,46.73
2022-12-08T00:27:55.024Z,47.56
2022-12-08T00:28:54.856Z,47.70
2022-12-08T00:29:54.863Z,48.36
2022-12-08T00:30:54.866Z,47.66
2022-12-08T00:31:54.953Z,46.68
2022-12-08T00:32:54.864Z,47.67
2022-12-08T00:33:54.842Z,48.04
2022-12-08T00:34:54.847Z,50.51
2022-12-08T00:35:54.801Z,47.12
2022-12-08T00:36:55.812Z,46.91
2022-12-08T00:38:00.496Z,53.73
2022-12-08T00:38:56.811Z,47.65
2022-12-08T00:39:54.805Z,47.79
2022-12-08T00:40:54.796Z,47.48
2022-12-08T00:41:54.790Z,47.52
2022-12-08T00:42:54.797Z,47.49
2022-12-08T00:43:54.772Z,46.97
2022-12-08T00:44:54.744Z,46.75
2022-12-08T00:45:54.782Z,46.75
2022-12-08T00:46:54.768Z,46.73
2022-12-08T00:47:54.810Z,46.68
2022-12-08T00:48:54.731Z,46.67
2022-12-08T00:49:54.699Z,46.64
2022-12-08T00:50:54.737Z,46.70
2022-12-08T00:51:54.727Z,46.75
2022-12-08T00:52:54.739Z,46.73
2022-12-08T00:53:54.698Z,46.66
2022-12-08T00:54:54.765Z,46.70
2022-12-08T00:55:54.722Z,47.87
2022-12-08T00:56:54.733Z,47.08
2022-12-08T00:57:54.684Z,46.45
2022-12-08T00:58:54.661Z,47.71
2022-12-08T00:59:55.664Z,48.30
2022-12-08T01:00:54.766Z,46.59
2022-12-08T01:01:54.633Z,49.65
2022-12-08T01:02:54.742Z,48.51
2022-12-08T01:03:54.620Z,46.95
2022-12-08T01:04:54.647Z,46.57
2022-12-08T01:05:54.608Z,48.31
2022-12-08T01:06:54.591Z,47.20
2022-12-08T01:07:54.714Z,46.71
2022-12-08T01:08:54.618Z,48.71
2022-12-08T01:09:54.560Z,47.21
2022-12-08T01:10:54.610Z,47.40
2022-12-08T01:11:54.574Z,47.20
2022-12-08T01:12:54.565Z,46.55
2022-12-08T01:13:54.580Z,47.60
2022-12-08T01:14:57.976Z,46.57
2022-12-08T01:15:56.596Z,47.84
2022-12-08T01:16:54.568Z,53.88
2022-12-08T01:17:54.528Z,47.29
2022-12-08T01:18:54.606Z,48.26
2022-12-08T01:19:54.524Z,49.15
2022-12-08T01:20:54.548Z,47.21
2022-12-08T01:21:54.527Z,46.99
2022-12-08T01:22:54.499Z,46.68
2022-12-08T01:23:54.500Z,48.97
2022-12-08T01:24:54.512Z,49.24
2022-12-08T01:25:54.491Z,46.73
2022-12-08T01:26:54.470Z,46.32
2022-12-08T01:27:54.457Z,46.56
2022-12-08T01:28:54.496Z,47.11
2022-12-08T01:29:54.519Z,49.10
2022-12-08T01:30:54.499Z,47.92
2022-12-08T01:31:54.472Z,46.59
2022-12-08T01:32:54.443Z,46.63
2022-12-08T01:33:54.415Z,47.54
2022-12-08T01:34:54.435Z,49.06
2022-12-08T01:35:54.434Z,46.70
2022-12-08T01:36:54.427Z,46.71
2022-12-08T01:37:54.430Z,46.52
2022-12-08T01:38:54.392Z,46.44
2022-12-08T01:39:54.394Z,46.60
2022-12-08T01:40:54.399Z,46.71
2022-12-08T01:41:54.381Z,46.72
2022-12-08T01:42:54.393Z,51.57
2022-12-08T01:43:54.364Z,46.73
2022-12-08T01:44:54.358Z,46.76
2022-12-08T01:45:54.368Z,46.74
2022-12-08T01:46:54.350Z,46.78
2022-12-08T01:47:54.438Z,48.39
2022-12-08T01:48:54.314Z,47.69
2022-12-08T01:49:54.347Z,51.26
2022-12-08T01:50:54.323Z,49.28
2022-12-08T01:51:54.313Z,46.70
2022-12-08T01:52:54.321Z,46.70
2022-12-08T01:53:54.309Z,51.16
2022-12-08T01:54:54.320Z,48.91
2022-12-08T01:55:54.271Z,48.48
2022-12-08T01:56:54.276Z,46.69
2022-12-08T01:57:54.297Z,46.69
2022-12-08T01:58:54.260Z,49.90
2022-12-08T01:59:54.236Z,47.87
2022-12-08T02:00:54.319Z,46.70
2022-12-08T02:01:54.290Z,47.10
2022-12-08T02:02:54.432Z,46.69
2022-12-08T02:03:54.279Z,47.83
2022-12-08T02:04:54.219Z,52.89
2022-12-08T02:05:54.215Z,47.42
2022-12-08T02:06:54.207Z,47.28
2022-12-08T02:07:54.254Z,47.24
2022-12-08T02:08:54.255Z,47.15
2022-12-08T02:09:54.240Z,49.21
2022-12-08T02:10:54.193Z,46.80
2022-12-08T02:11:54.202Z,49.57
2022-12-08T02:12:54.168Z,47.35
2022-12-08T02:13:54.194Z,53.55
2022-12-08T02:14:54.175Z,47.22
2022-12-08T02:15:54.199Z,46.70
2022-12-08T02:16:54.147Z,46.98
2022-12-08T02:17:54.150Z,49.68
2022-12-08T02:19:22.521Z,46.93
2022-12-08T02:19:56.146Z,46.34
2022-12-08T02:20:54.127Z,46.47
2022-12-08T02:21:54.109Z,46.57
2022-12-08T02:22:54.098Z,46.52
2022-12-08T02:23:54.081Z,48.40
2022-12-08T02:24:54.103Z,47.39
2022-12-08T02:25:54.102Z,47.33
2022-12-08T02:26:54.102Z,50.60
2022-12-08T02:27:55.054Z,46.73
2022-12-08T02:28:54.055Z,48.11
2022-12-08T02:29:54.126Z,48.51
2022-12-08T02:30:54.079Z,47.48
2022-12-08T02:31:55.067Z,46.69
2022-12-08T02:32:54.071Z,47.79
2022-12-08T02:33:54.022Z,46.79
2022-12-08T02:34:54.002Z,48.38
2022-12-08T02:35:54.017Z,47.21
2022-12-08T02:36:54.041Z,47.11
2022-12-08T02:37:54.049Z,48.46
2022-12-08T02:38:54.019Z,47.53
2022-12-08T02:39:53.999Z,48.24
2022-12-08T02:40:53.960Z,50.70
2022-12-08T02:41:53.962Z,50.25
2022-12-08T02:42:53.956Z,47.24
2022-12-08T02:43:53.977Z,48.20
2022-12-08T02:44:53.950Z,46.84
2022-12-08T02:45:53.990Z,46.90
2022-12-08T02:46:53.934Z,48.20
2022-12-08T02:47:53.926Z,47.66
2022-12-08T02:48:53.988Z,47.94
2022-12-08T02:49:53.969Z,47.90
2022-12-08T02:50:53.910Z,49.85
2022-12-08T02:51:53.912Z,47.39
2022-12-08T02:52:53.903Z,46.79
2022-12-08T02:53:53.916Z,48.23
2022-12-08T02:54:53.917Z,57.12
2022-12-08T02:55:53.893Z,47.26
2022-12-08T02:56:53.867Z,46.71
2022-12-08T02:57:53.942Z,46.71
2022-12-08T02:58:53.896Z,46.68
2022-12-08T02:59:53.852Z,47.77
2022-12-08T03:00:53.863Z,49.25
2022-12-08T03:01:53.928Z,46.90
2022-12-08T03:02:53.893Z,48.45
2022-12-08T03:03:53.851Z,48.73
2022-12-08T03:04:53.843Z,48.30
2022-12-08T03:05:53.839Z,47.44
2022-12-08T03:06:53.812Z,48.99
2022-12-08T03:07:53.890Z,47.22
2022-12-08T03:08:53.848Z,46.92
2022-12-08T03:09:53.790Z,47.57
2022-12-08T03:10:53.825Z,47.67
2022-12-08T03:11:53.796Z,48.93
2022-12-08T03:12:53.810Z,52.01
2022-12-08T03:13:53.795Z,47.23
2022-12-08T03:14:53.794Z,46.97
2022-12-08T03:15:53.859Z,48.27
2022-12-08T03:16:53.744Z,49.71
2022-12-08T03:17:53.772Z,51.89
2022-12-08T03:18:53.729Z,49.73
2022-12-08T03:19:53.755Z,46.63
2022-12-08T03:20:53.716Z,46.67
2022-12-08T03:21:53.762Z,50.25
2022-12-08T03:22:53.780Z,53.62
2022-12-08T03:23:53.702Z,47.99
2022-12-08T03:24:53.704Z,53.43
2022-12-08T03:25:53.672Z,55.08
2022-12-08T03:26:53.662Z,54.60
2022-12-08T03:27:53.706Z,49.27
2022-12-08T03:28:53.753Z,46.85
2022-12-08T03:29:53.675Z,46.83
2022-12-08T03:30:53.717Z,47.82
2022-12-08T03:31:53.656Z,49.50
2022-12-08T03:32:53.667Z,47.85
2022-12-08T03:33:53.628Z,52.16
2022-12-08T03:34:53.622Z,51.07
2022-12-08T03:35:53.653Z,50.58
2022-12-08T03:36:53.638Z,49.28
2022-12-08T03:37:53.628Z,50.68
2022-12-08T03:38:53.636Z,50.43
2022-12-08T03:39:53.628Z,49.61
2022-12-08T03:40:53.583Z,46.90
2022-12-08T03:41:53.589Z,50.12
2022-12-08T03:42:53.576Z,47.00
2022-12-08T03:43:53.614Z,47.30
2022-12-08T03:44:53.597Z,49.14
2022-12-08T03:45:53.565Z,50.29
2022-12-08T03:46:53.558Z,49.05
2022-12-08T03:47:53.530Z,47.27
2022-12-08T03:48:53.584Z,49.09
2022-12-08T03:49:53.567Z,50.29
2022-12-08T03:50:53.535Z,48.04
2022-12-08T03:51:53.559Z,50.64
2022-12-08T03:52:53.510Z,52.79
2022-12-08T03:53:53.514Z,51.07
2022-12-08T03:54:53.532Z,52.82
2022-12-08T03:55:53.510Z,51.39
2022-12-08T03:56:53.491Z,48.06
2022-12-08T03:57:53.493Z,48.96
2022-12-08T03:58:53.473Z,51.68
2022-12-08T03:59:53.465Z,46.82
2022-12-08T04:00:53.473Z,50.30
2022-12-08T04:01:53.606Z,50.36
2022-12-08T04:02:53.548Z,48.32
2022-12-08T04:03:53.471Z,49.51
2022-12-08T04:04:53.418Z,52.64
2022-12-08T04:05:53.442Z,51.00
2022-12-08T04:06:53.417Z,49.45
2022-12-08T04:07:53.463Z,47.55
2022-12-08T04:08:53.405Z,49.20
2022-12-08T04:09:53.421Z,50.40
2022-12-08T04:10:53.400Z,49.25
2022-12-08T04:11:53.430Z,51.10
2022-12-08T04:12:53.395Z,53.95
2022-12-08T04:13:53.366Z,48.66
2022-12-08T04:14:53.373Z,49.71
2022-12-08T04:15:53.446Z,51.73
2022-12-08T04:16:53.390Z,50.33
2022-12-08T04:17:53.384Z,48.06
2022-12-08T04:18:53.338Z,51.92
2022-12-08T04:19:53.332Z,56.49
2022-12-08T04:20:53.342Z,54.69
2022-12-08T04:21:53.313Z,54.85
2022-12-08T04:22:53.345Z,54.90
2022-12-08T04:23:59.184Z,53.08
2022-12-08T04:24:55.301Z,51.51
2022-12-08T04:25:53.309Z,53.78
2022-12-08T04:26:53.300Z,53.51
2022-12-08T04:27:53.297Z,50.29
2022-12-08T04:28:53.370Z,50.87
2022-12-08T04:29:53.279Z,53.16
2022-12-08T04:30:53.265Z,57.13
2022-12-08T04:31:53.346Z,54.10
2022-12-08T04:32:53.246Z,51.80
2022-12-08T04:33:53.277Z,50.83
2022-12-08T04:34:53.254Z,52.68
2022-12-08T04:35:53.315Z,57.46
2022-12-08T04:36:53.235Z,57.80
2022-12-08T04:37:53.195Z,57.14
2022-12-08T04:38:53.233Z,57.93
2022-12-08T04:39:53.215Z,57.42
2022-12-08T04:40:53.193Z,51.21
2022-12-08T04:41:53.201Z,51.68
2022-12-08T04:42:53.233Z,52.45
2022-12-08T04:43:53.178Z,54.07
2022-12-08T04:44:53.176Z,51.94
2022-12-08T04:45:53.155Z,53.06
2022-12-08T04:46:53.325Z,61.13
2022-12-08T04:47:53.177Z,61.71
2022-12-08T04:48:53.157Z,60.90
2022-12-08T04:49:53.177Z,60.59
2022-12-08T04:50:53.149Z,60.25
2022-12-08T04:51:53.162Z,60.45
2022-12-08T04:52:53.173Z,60.01
2022-12-08T04:53:53.119Z,58.49
2022-12-08T04:54:53.136Z,52.45
2022-12-08T04:55:53.105Z,54.62
2022-12-08T04:56:53.113Z,54.29
2022-12-08T04:57:53.083Z,54.94
2022-12-08T04:58:53.090Z,53.05
2022-12-08T04:59:53.055Z,52.00
2022-12-08T05:00:53.240Z,54.68
2022-12-08T05:01:53.245Z,55.00
2022-12-08T05:02:53.082Z,50.70
2022-12-08T05:03:53.038Z,54.07
2022-12-08T05:04:53.049Z,55.67
2022-12-08T05:05:53.034Z,54.02
2022-12-08T05:06:53.030Z,56.64
2022-12-08T05:07:53.100Z,52.72
2022-12-08T05:08:53.042Z,51.16
2022-12-08T05:09:52.990Z,52.97
2022-12-08T05:10:53.108Z,54.54
2022-12-08T05:11:53.057Z,55.25
2022-12-08T05:12:52.976Z,54.38
2022-12-08T05:13:53.963Z,55.53
2022-12-08T05:14:52.962Z,53.77
2022-12-08T05:15:53.117Z,51.51
2022-12-08T05:16:53.080Z,54.76
2022-12-08T05:17:52.940Z,54.19
2022-12-08T05:18:52.921Z,52.02
2022-12-08T05:19:53.919Z,57.24
2022-12-08T05:20:52.964Z,55.22
2022-12-08T05:21:52.903Z,55.28
2022-12-08T05:22:52.955Z,56.37
2022-12-08T05:23:52.888Z,52.40
2022-12-08T05:24:52.911Z,56.09
2022-12-08T05:25:52.912Z,55.88
2022-12-08T05:26:52.932Z,55.70
2022-12-08T05:28:01.642Z,55.58
2022-12-08T05:28:54.888Z,53.35
2022-12-08T05:29:53.022Z,53.38
2022-12-08T05:30:52.924Z,57.39
2022-12-08T05:31:52.895Z,55.19
2022-12-08T05:32:52.844Z,58.14
2022-12-08T05:33:52.900Z,55.87
2022-12-08T05:34:52.827Z,58.25
2022-12-08T05:35:52.813Z,54.40
2022-12-08T05:36:52.811Z,57.24
2022-12-08T05:37:52.816Z,54.74
2022-12-08T05:38:52.907Z,56.82
2022-12-08T05:39:52.811Z,57.50
2022-12-08T05:40:52.802Z,56.01
2022-12-08T05:41:52.767Z,56.17
2022-12-08T05:42:52.801Z,52.10
2022-12-08T05:43:52.796Z,54.09
2022-12-08T05:44:52.778Z,53.88
2022-12-08T05:45:52.820Z,58.01
2022-12-08T05:46:52.739Z,53.56
2022-12-08T05:47:52.758Z,55.91
2022-12-08T05:48:52.844Z,56.52
2022-12-08T05:49:52.717Z,56.74
2022-12-08T05:50:52.752Z,55.57
2022-12-08T05:51:52.764Z,56.71
2022-12-08T05:52:52.716Z,54.79
2022-12-08T05:53:52.703Z,55.05
2022-12-08T05:54:52.785Z,57.28
2022-12-08T05:55:52.710Z,57.33
2022-12-08T05:56:52.724Z,57.12
2022-12-08T05:57:52.662Z,55.57
2022-12-08T05:58:52.696Z,57.36
2022-12-08T05:59:52.803Z,58.54
2022-12-08T06:00:52.682Z,58.08
2022-12-08T06:01:52.726Z,61.41
2022-12-08T06:02:52.737Z,60.93
2022-12-08T06:03:52.689Z,61.94
2022-12-08T06:04:52.692Z,56.70
2022-12-08T06:05:52.714Z,55.45
2022-12-08T06:06:52.653Z,56.58
2022-12-08T06:07:52.645Z,57.37
2022-12-08T06:08:52.645Z,58.84
2022-12-08T06:09:52.612Z,56.64
2022-12-08T06:10:52.710Z,57.98
2022-12-08T06:11:52.676Z,57.98
2022-12-08T06:12:52.595Z,56.73
2022-12-08T06:13:52.598Z,55.78
2022-12-08T06:14:52.565Z,58.27
2022-12-08T06:15:52.595Z,56.13
2022-12-08T06:16:52.777Z,54.84
2022-12-08T06:17:52.538Z,55.56
2022-12-08T06:18:52.553Z,56.94
2022-12-08T06:19:52.563Z,57.03
2022-12-08T06:20:52.619Z,56.22
2022-12-08T06:21:52.563Z,57.85
2022-12-08T06:22:52.558Z,58.33
2022-12-08T06:23:52.555Z,57.78
2022-12-08T06:24:52.527Z,58.45
2022-12-08T06:25:52.490Z,58.36
2022-12-08T06:26:52.506Z,58.70
2022-12-08T06:27:52.615Z,58.84
2022-12-08T06:28:52.515Z,56.30
2022-12-08T06:29:52.519Z,54.86
2022-12-08T06:30:52.491Z,55.93
2022-12-08T06:31:52.606Z,55.07
2022-12-08T06:32:52.463Z,57.54
2022-12-08T06:33:52.463Z,56.89
2022-12-08T06:34:52.434Z,56.00
2022-12-08T06:35:52.419Z,58.01
2022-12-08T06:36:52.450Z,55.60
2022-12-08T06:37:52.437Z,56.91
2022-12-08T06:38:52.461Z,55.27
2022-12-08T06:39:52.408Z,56.93
2022-12-08T06:40:52.404Z,57.48
2022-12-08T06:41:52.403Z,59.43
2022-12-08T06:42:52.371Z,56.39
2022-12-08T06:43:52.463Z,55.85
2022-12-08T06:44:52.575Z,54.81
2022-12-08T06:45:52.396Z,56.78
2022-12-08T06:46:52.351Z,57.19
2022-12-08T06:47:52.363Z,57.11
2022-12-08T06:48:52.439Z,56.28
2022-12-08T06:49:52.365Z,57.10
2022-12-08T06:50:52.332Z,56.18
2022-12-08T06:51:52.327Z,59.17
2022-12-08T06:53:01.118Z,57.70
2022-12-08T06:53:54.301Z,56.54
2022-12-08T06:54:52.316Z,57.10
2022-12-08T06:55:59.462Z,54.20
2022-12-08T06:56:54.318Z,55.53
2022-12-08T06:57:54.089Z,56.02
2022-12-08T06:58:53.399Z,56.49
2022-12-08T06:59:52.325Z,56.46
2022-12-08T07:00:52.390Z,53.82
2022-12-08T07:01:52.359Z,53.71
2022-12-08T07:02:52.287Z,55.90
2022-12-08T07:03:52.227Z,55.07
2022-12-08T07:04:52.270Z,56.29
2022-12-08T07:05:52.255Z,54.82
2022-12-08T07:06:52.212Z,55.92
2022-12-08T07:07:52.244Z,57.40
2022-12-08T07:08:52.228Z,57.03
2022-12-08T07:09:52.201Z,57.69
2022-12-08T07:10:52.344Z,56.90
2022-12-08T07:11:52.191Z,56.59
2022-12-08T07:12:52.187Z,56.20
2022-12-08T07:13:52.202Z,54.25
2022-12-08T07:14:52.197Z,54.69
2022-12-08T07:15:52.189Z,53.97
2022-12-08T07:16:52.251Z,55.37
2022-12-08T07:17:56.389Z,56.95
2022-12-08T07:18:54.170Z,55.41
2022-12-08T07:19:52.229Z,56.01
2022-12-08T07:20:52.189Z,54.13
2022-12-08T07:21:52.173Z,57.02
2022-12-08T07:22:52.136Z,55.96
2022-12-08T07:23:57.271Z,58.73
2022-12-08T07:24:54.200Z,55.24
2022-12-08T07:25:52.238Z,55.66
2022-12-08T07:26:52.124Z,54.40
2022-12-08T07:27:52.117Z,53.69
2022-12-08T07:28:52.155Z,55.10
2022-12-08T07:29:52.237Z,56.46
2022-12-08T07:30:52.216Z,55.31
2022-12-08T07:31:52.294Z,56.50
2022-12-08T07:32:52.088Z,57.12
2022-12-08T07:33:52.054Z,55.74
2022-12-08T07:34:52.074Z,57.44
2022-12-08T07:35:52.059Z,57.28
2022-12-08T07:36:52.050Z,57.03
2022-12-08T07:37:52.015Z,56.16
2022-12-08T07:38:52.025Z,55.91
2022-12-08T07:39:52.047Z,54.72
2022-12-08T07:40:52.002Z,56.78
2022-12-08T07:41:52.036Z,57.44
2022-12-08T07:42:52.064Z,55.77
2022-12-08T07:43:51.986Z,54.92
2022-12-08T07:44:51.994Z,57.64
2022-12-08T07:45:52.009Z,55.99
2022-12-08T07:46:51.987Z,56.09
2022-12-08T07:47:51.993Z,56.46
2022-12-08T07:48:52.983Z,57.17
2022-12-08T07:49:52.008Z,55.96
2022-12-08T07:50:51.980Z,55.54
2022-12-08T07:51:51.947Z,56.60
2022-12-08T07:52:51.927Z,54.80
2022-12-08T07:53:54.524Z,58.13
2022-12-08T07:54:52.928Z,55.38
2022-12-08T07:55:51.950Z,56.28
2022-12-08T07:56:51.888Z,56.78
2022-12-08T07:57:51.942Z,58.86
2022-12-08T07:58:51.939Z,56.23
2022-12-08T07:59:51.876Z,56.21
2022-12-08T08:00:51.907Z,56.49
2022-12-08T08:02:06.547Z,55.18
2022-12-08T08:02:53.985Z,54.35
2022-12-08T08:03:51.884Z,56.70
2022-12-08T08:04:52.096Z,56.56
2022-12-08T08:05:51.841Z,55.06
2022-12-08T08:06:51.822Z,56.41
2022-12-08T08:07:51.889Z,58.01
2022-12-08T08:08:51.814Z,56.43
2022-12-08T08:09:51.825Z,57.64
2022-12-08T08:10:51.799Z,54.99
2022-12-08T08:12:07.456Z,54.71
2022-12-08T08:12:53.825Z,53.82
2022-12-08T08:13:51.862Z,56.86
2022-12-08T08:14:51.802Z,53.29
2022-12-08T08:15:51.884Z,57.75
2022-12-08T08:16:51.898Z,55.98
2022-12-08T08:17:51.786Z,57.50
2022-12-08T08:18:51.742Z,55.86
2022-12-08T08:19:51.721Z,55.27
2022-12-08T08:20:51.763Z,56.82
2022-12-08T08:21:51.736Z,56.42
2022-12-08T08:22:51.744Z,57.35
2022-12-08T08:23:51.727Z,57.99
2022-12-08T08:24:52.706Z,56.97
2022-12-08T08:25:51.736Z,59.13
2022-12-08T08:26:51.700Z,57.18
2022-12-08T08:27:51.692Z,54.62
2022-12-08T08:28:51.691Z,58.12
2022-12-08T08:29:51.644Z,55.21
2022-12-08T08:30:51.744Z,55.94
2022-12-08T08:31:51.694Z,56.30
2022-12-08T08:32:51.656Z,54.54
2022-12-08T08:33:51.639Z,56.98
2022-12-08T08:34:51.650Z,56.90
2022-12-08T08:35:51.648Z,57.24
2022-12-08T08:36:51.749Z,57.09
2022-12-08T08:37:51.634Z,56.95
2022-12-08T08:38:51.593Z,55.61
2022-12-08T08:39:51.590Z,56.38
2022-12-08T08:40:51.616Z,57.63
2022-12-08T08:41:51.622Z,55.67
2022-12-08T08:42:51.569Z,56.35
2022-12-08T08:43:51.575Z,57.15
2022-12-08T08:44:51.591Z,55.28
2022-12-08T08:45:51.899Z,57.01
2022-12-08T08:46:51.564Z,54.49
2022-12-08T08:47:51.595Z,56.93
2022-12-08T08:48:51.539Z,57.55
2022-12-08T08:49:51.541Z,56.23
2022-12-08T08:50:51.531Z,56.51
2022-12-08T08:51:51.500Z,56.75
2022-12-08T08:52:51.540Z,57.60
2022-12-08T08:53:51.503Z,57.88
2022-12-08T08:54:51.493Z,57.23
2022-12-08T08:55:51.520Z,55.42
2022-12-08T08:56:51.507Z,57.58
2022-12-08T08:57:51.511Z,54.09
2022-12-08T08:58:51.483Z,53.39
2022-12-08T08:59:51.474Z,57.23
2022-12-08T09:00:51.467Z,58.27
2022-12-08T09:01:51.571Z,55.61
2022-12-08T09:02:51.473Z,55.85
2022-12-08T09:03:51.460Z,57.14
2022-12-08T09:04:51.596Z,58.39
2022-12-08T09:05:51.486Z,57.78
2022-12-08T09:06:51.414Z,53.62
2022-12-08T09:07:51.443Z,56.70
2022-12-08T09:08:51.420Z,55.92
2022-12-08T09:09:51.396Z,54.97
2022-12-08T09:10:51.418Z,54.44
2022-12-08T09:11:51.395Z,54.58
2022-12-08T09:12:51.370Z,56.64
2022-12-08T09:13:51.411Z,55.35
2022-12-08T09:14:51.353Z,55.82
2022-12-08T09:15:51.390Z,55.25
2022-12-08T09:16:51.395Z,54.54
2022-12-08T09:17:51.328Z,55.88
2022-12-08T09:18:51.363Z,54.83
2022-12-08T09:19:51.367Z,54.70
2022-12-08T09:20:51.335Z,55.72
2022-12-08T09:21:51.342Z,57.08
2022-12-08T09:22:51.314Z,55.94
2022-12-08T09:23:51.309Z,55.81
2022-12-08T09:24:51.352Z,56.87
2022-12-08T09:25:51.304Z,56.70
2022-12-08T09:26:51.311Z,54.04
2022-12-08T09:27:51.291Z,56.15
2022-12-08T09:28:51.265Z,57.81
2022-12-08T09:29:51.311Z,57.38
2022-12-08T09:30:51.329Z,55.08
2022-12-08T09:31:51.320Z,54.56
2022-12-08T09:32:51.268Z,56.29
2022-12-08T09:33:51.239Z,55.26
2022-12-08T09:34:52.341Z,54.46
2022-12-08T09:35:52.281Z,57.09
2022-12-08T09:36:51.270Z,56.41
2022-12-08T09:37:51.242Z,57.26
2022-12-08T09:38:51.248Z,55.90
2022-12-08T09:39:51.225Z,55.32
2022-12-08T09:40:51.221Z,55.05
2022-12-08T09:41:51.214Z,57.17
2022-12-08T09:42:51.190Z,56.46
2022-12-08T09:43:51.205Z,57.19
2022-12-08T09:44:51.215Z,59.03
2022-12-08T09:45:51.167Z,55.35
2022-12-08T09:46:51.260Z,52.56
2022-12-08T09:47:51.165Z,56.28
2022-12-08T09:48:51.149Z,55.42
2022-12-08T09:49:51.147Z,54.31
2022-12-08T09:50:51.121Z,54.54
2022-12-08T09:51:51.160Z,54.43
2022-12-08T09:52:51.124Z,56.06
2022-12-08T09:53:51.118Z,55.76
2022-12-08T09:54:51.089Z,57.51
2022-12-08T09:55:51.097Z,56.18
2022-12-08T09:56:51.115Z,56.71
2022-12-08T09:57:56.339Z,55.68
2022-12-08T09:58:52.153Z,55.37
2022-12-08T09:59:51.057Z,51.05
2022-12-08T10:00:51.077Z,54.13
2022-12-08T10:01:51.160Z,57.84
2022-12-08T10:02:52.071Z,59.29
2022-12-08T10:03:51.058Z,59.32
2022-12-08T10:04:51.130Z,56.68
2022-12-08T10:05:51.022Z,54.38
2022-12-08T10:06:51.021Z,54.33
2022-12-08T10:07:51.144Z,56.43
2022-12-08T10:08:51.050Z,54.92
2022-12-08T10:09:51.024Z,54.39
2022-12-08T10:10:51.046Z,52.31
2022-12-08T10:11:51.001Z,55.96
2022-12-08T10:12:51.035Z,55.42
2022-12-08T10:13:50.985Z,52.95
2022-12-08T10:14:50.980Z,54.67
2022-12-08T10:15:50.996Z,55.90
2022-12-08T10:16:51.018Z,57.37
2022-12-08T10:17:50.993Z,56.93
2022-12-08T10:18:50.961Z,58.14
2022-12-08T10:19:50.920Z,57.31
2022-12-08T10:20:50.925Z,57.16
2022-12-08T10:21:50.918Z,57.77
2022-12-08T10:22:50.914Z,58.88
2022-12-08T10:23:50.929Z,55.94
2022-12-08T10:24:50.916Z,63.04
2022-12-08T10:25:50.896Z,57.54
2022-12-08T10:26:50.909Z,57.34
2022-12-08T10:27:50.910Z,55.47
2022-12-08T10:28:50.909Z,57.15
2022-12-08T10:29:50.923Z,57.59
2022-12-08T10:30:50.855Z,57.31
2022-12-08T10:31:51.078Z,53.28
2022-12-08T10:32:50.847Z,54.29
2022-12-08T10:33:50.875Z,55.79
2022-12-08T10:34:56.111Z,56.27
2022-12-08T10:35:52.955Z,53.26
2022-12-08T10:36:50.877Z,54.86
2022-12-08T10:37:50.815Z,55.29
2022-12-08T10:38:50.799Z,56.57
2022-12-08T10:39:50.813Z,53.70
2022-12-08T10:40:50.871Z,54.71
2022-12-08T10:41:50.810Z,54.60
2022-12-08T10:42:50.769Z,56.33
2022-12-08T10:43:50.769Z,55.12
2022-12-08T10:44:50.780Z,55.88
2022-12-08T10:45:50.803Z,54.40
2022-12-08T10:46:50.835Z,55.99
2022-12-08T10:47:55.256Z,56.41
2022-12-08T10:48:51.756Z,56.36
2022-12-08T10:49:50.723Z,53.78
2022-12-08T10:50:50.833Z,54.93
2022-12-08T10:51:50.730Z,55.93
2022-12-08T10:52:51.213Z,53.36
2022-12-08T10:53:50.701Z,54.00
2022-12-08T10:54:50.716Z,56.76
2022-12-08T10:55:50.685Z,55.52
2022-12-08T10:56:50.737Z,54.86
2022-12-08T10:57:50.747Z,56.68
2022-12-08T10:58:50.682Z,56.59
2022-12-08T10:59:50.669Z,55.87
2022-12-08T11:00:50.770Z,54.96
2022-12-08T11:01:50.866Z,52.95
2022-12-08T11:02:50.730Z,56.74
2022-12-08T11:03:50.651Z,55.48
2022-12-08T11:04:50.666Z,57.55
2022-12-08T11:05:50.621Z,56.02
2022-12-08T11:06:50.650Z,56.01
2022-12-08T11:07:50.691Z,56.62
2022-12-08T11:08:50.617Z,54.61
2022-12-08T11:09:50.623Z,54.09
2022-12-08T11:10:50.612Z,55.49
2022-12-08T11:11:50.636Z,53.30
2022-12-08T11:12:50.618Z,54.86
2022-12-08T11:13:50.601Z,55.07
2022-12-08T11:14:50.585Z,55.31
2022-12-08T11:15:50.637Z,56.78
2022-12-08T11:16:50.629Z,55.55
2022-12-08T11:17:54.660Z,54.40
2022-12-08T11:18:52.607Z,52.36
2022-12-08T11:19:50.560Z,54.14
2022-12-08T11:20:50.626Z,55.36
2022-12-08T11:21:50.564Z,57.69
2022-12-08T11:22:50.563Z,55.51
2022-12-08T11:23:50.552Z,54.83
2022-12-08T11:24:50.521Z,55.51
2022-12-08T11:25:50.516Z,57.02
2022-12-08T11:26:50.519Z,55.42
2022-12-08T11:27:50.553Z,56.35
2022-12-08T11:28:50.595Z,55.94
2022-12-08T11:29:50.507Z,53.90
2022-12-08T11:30:50.638Z,55.81
2022-12-08T11:31:50.564Z,55.47
2022-12-08T11:32:50.542Z,55.72
2022-12-08T11:33:50.512Z,54.28
2022-12-08T11:34:50.455Z,55.13
2022-12-08T11:35:50.488Z,55.16
2022-12-08T11:36:50.467Z,53.14
2022-12-08T11:37:50.684Z,53.98
2022-12-08T11:38:50.478Z,54.05
2022-12-08T11:39:50.454Z,53.93
2022-12-08T11:40:50.432Z,56.43
2022-12-08T11:41:50.419Z,56.34
2022-12-08T11:42:50.412Z,56.22
2022-12-08T11:43:50.425Z,56.44
2022-12-08T11:44:50.396Z,55.67
2022-12-08T11:45:50.516Z,54.83
2022-12-08T11:46:50.375Z,54.41
2022-12-08T11:47:55.603Z,55.53
2022-12-08T11:48:52.416Z,54.29
2022-12-08T11:49:50.432Z,56.02
2022-12-08T11:50:50.342Z,56.37
2022-12-08T11:51:50.353Z,55.24
2022-12-08T11:52:50.343Z,55.56
2022-12-08T11:53:50.402Z,52.98
2022-12-08T11:54:50.328Z,56.69
2022-12-08T11:55:50.413Z,53.73
2022-12-08T11:56:50.332Z,52.30
2022-12-08T11:57:50.419Z,55.60
2022-12-08T11:58:50.314Z,53.30
2022-12-08T11:59:50.318Z,55.37
2022-12-08T12:00:50.290Z,57.11
2022-12-08T12:01:50.348Z,53.50
2022-12-08T12:02:50.342Z,53.15
2022-12-08T12:03:50.333Z,54.25
2022-12-08T12:04:50.272Z,51.81
2022-12-08T12:06:13.075Z,53.23
2022-12-08T12:06:55.775Z,54.89
2022-12-08T12:07:51.320Z,53.43
2022-12-08T12:08:50.264Z,54.27
2022-12-08T12:09:50.236Z,54.18
2022-12-08T12:10:50.215Z,55.64
2022-12-08T12:11:50.216Z,55.19
2022-12-08T12:12:50.234Z,53.81
2022-12-08T12:13:50.213Z,52.84
2022-12-08T12:14:50.188Z,55.50
2022-12-08T12:15:50.200Z,53.59
2022-12-08T12:16:50.227Z,51.55
2022-12-08T12:17:50.204Z,54.88
2022-12-08T12:18:50.168Z,52.37
2022-12-08T12:19:50.209Z,54.55
2022-12-08T12:20:50.184Z,55.21
2022-12-08T12:21:50.164Z,55.87
2022-12-08T12:22:50.202Z,55.84
2022-12-08T12:23:50.238Z,53.05
2022-12-08T12:24:50.170Z,53.29
2022-12-08T12:25:50.149Z,53.70
2022-12-08T12:26:50.187Z,55.24
2022-12-08T12:27:51.144Z,54.76
2022-12-08T12:28:50.109Z,55.14
2022-12-08T12:29:55.442Z,56.99
2022-12-08T12:30:52.111Z,56.43
2022-12-08T12:31:50.105Z,54.42
2022-12-08T12:32:50.176Z,56.15
2022-12-08T12:33:50.162Z,54.70
2022-12-08T12:34:50.057Z,56.72
2022-12-08T12:35:50.062Z,56.35
2022-12-08T12:36:50.058Z,56.33
2022-12-08T12:37:50.054Z,55.10
2022-12-08T12:38:50.080Z,56.03
2022-12-08T12:39:50.073Z,57.44
2022-12-08T12:40:50.038Z,55.73
2022-12-08T12:41:50.026Z,54.83
2022-12-08T12:42:50.030Z,53.85
2022-12-08T12:43:50.035Z,54.90
2022-12-08T12:44:50.025Z,55.30
2022-12-08T12:45:50.071Z,55.07
2022-12-08T12:46:49.992Z,53.59
2022-12-08T12:47:56.001Z,52.86
2022-12-08T12:48:51.977Z,57.16
2022-12-08T12:49:49.994Z,52.80
2022-12-08T12:50:49.958Z,52.67
2022-12-08T12:51:49.974Z,54.05
2022-12-08T12:52:49.935Z,54.83